createdAt,value
2019-04-07T00:00:12.214Z,77.23
2019-04-07T00:03:20.850Z,76.62
2019-04-07T00:06:28.271Z,79.76
2019-04-07T00:09:35.573Z,82.29
2019-04-07T00:12:42.762Z,84.91
2019-04-07T00:15:49.946Z,88.29
2019-04-07T00:18:56.890Z,87.01
2019-04-07T00:22:03.923Z,86.46
2019-04-07T00:25:13.125Z,84.11
2019-04-07T00:28:20.505Z,84.47
2019-04-07T00:31:28.872Z,81.93
2019-04-07T00:34:35.886Z,81.92
2019-04-07T00:37:42.818Z,82.70
2019-04-07T00:40:50.196Z,84.74
2019-04-07T00:43:57.228Z,83.83
2019-04-07T00:47:04.130Z,82.38
2019-04-07T00:50:12.987Z,84.42
2019-04-07T00:53:20.032Z,85.02
2019-04-07T00:56:27.221Z,85.75
2019-04-07T00:59:34.052Z,83.27
2019-04-07T01:02:41.486Z,82.73
2019-04-07T01:05:49.883Z,83.69
2019-04-07T01:08:56.893Z,82.33
2019-04-07T01:12:04.041Z,81.83
2019-04-07T01:15:12.737Z,82.40
2019-04-07T01:18:20.600Z,81.49
2019-04-07T01:21:28.102Z,81.37
2019-04-07T01:24:35.248Z,84.29
2019-04-07T01:27:42.394Z,84.24
2019-04-07T01:30:49.317Z,82.84
2019-04-07T01:33:56.414Z,84.75
2019-04-07T01:37:04.402Z,88.32
2019-04-07T01:40:14.547Z,86.41
2019-04-07T01:43:40.495Z,89.31
2019-04-07T01:47:09.396Z,89.63
2019-04-07T01:50:23.227Z,87.80
2019-04-07T01:53:52.301Z,86.37
2019-04-07T01:57:13.516Z,87.15
2019-04-07T02:00:27.102Z,88.73
2019-04-07T02:03:51.838Z,86.78
2019-04-07T02:07:30.147Z,90.93
2019-04-07T02:10:59.114Z,89.26
2019-04-07T02:14:31.806Z,85.99
2019-04-07T02:17:53.221Z,84.07
2019-04-07T02:21:04.322Z,85.84
2019-04-07T02:24:21.815Z,86.00
2019-04-07T02:27:56.894Z,85.47
2019-04-07T02:31:16.975Z,85.84
2019-04-07T02:34:29.877Z,87.10
2019-04-07T02:37:58.607Z,87.65
2019-04-07T02:41:24.078Z,88.23
2019-04-07T02:44:55.733Z,88.75
2019-04-07T02:48:25.010Z,89.03
2019-04-07T02:51:49.818Z,90.59
2019-04-07T02:55:30.946Z,88.01
2019-04-07T02:59:13.052Z,90.42
2019-04-07T03:02:31.896Z,89.55
2019-04-07T03:05:43.529Z,88.35
2019-04-07T03:08:59.965Z,86.21
2019-04-07T03:12:25.132Z,88.86
2019-04-07T03:15:42.181Z,91.29
2019-04-07T03:19:10.975Z,90.03
2019-04-07T03:22:42.322Z,88.54
2019-04-07T03:26:08.064Z,87.44
2019-04-07T03:29:43.221Z,87.77
2019-04-07T03:33:13.245Z,87.54
2019-04-07T03:37:11.629Z,86.46
2019-04-07T03:40:10.276Z,87.29
2019-04-07T03:43:37.898Z,90.89
2019-04-07T03:47:06.992Z,91.05
2019-04-07T03:50:33.350Z,92.23
2019-04-07T03:54:07.135Z,91.29
2019-04-07T03:57:32.459Z,91.58
2019-04-07T04:01:36.935Z,90.08
2019-04-07T04:04:53.041Z,92.14
2019-04-07T04:08:07.350Z,92.27
2019-04-07T04:11:37.663Z,91.46
2019-04-07T04:14:50.805Z,91.41
2019-04-07T04:17:57.908Z,92.04
2019-04-07T04:21:04.715Z,91.21
2019-04-07T04:24:12.270Z,89.87
2019-04-07T04:27:19.187Z,88.08
2019-04-07T04:30:25.957Z,87.76
2019-04-07T04:33:33.043Z,89.87
2019-04-07T04:36:40.467Z,90.44
2019-04-07T04:39:47.630Z,89.75
2019-04-07T04:42:55.028Z,89.66
2019-04-07T04:46:03.200Z,90.09
2019-04-07T04:49:10.143Z,91.49
2019-04-07T04:52:17.870Z,92.74
2019-04-07T04:55:26.003Z,91.50
2019-04-07T04:58:32.749Z,92.39
2019-04-07T05:01:41.181Z,93.52
2019-04-07T05:04:48.414Z,92.92
2019-04-07T05:08:00.717Z,91.39
2019-04-07T05:11:04.932Z,92.29
2019-04-07T05:14:14.183Z,90.14
2019-04-07T05:17:21.010Z,89.52
2019-04-07T05:20:28.535Z,88.76
2019-04-07T05:23:36.548Z,86.70
2019-04-07T05:26:46.475Z,86.81
2019-04-07T05:29:53.375Z,88.62
2019-04-07T05:33:00.911Z,88.02
2019-04-07T05:36:08.114Z,88.33
2019-04-07T05:39:17.315Z,89.10
2019-04-07T05:42:24.652Z,89.86
2019-04-07T05:45:33.552Z,89.26
2019-04-07T05:48:47.570Z,89.80
2019-04-07T05:51:54.486Z,89.04
2019-04-07T05:55:01.376Z,88.27
2019-04-07T05:58:08.556Z,87.66
2019-04-07T06:01:17.055Z,89.39
2019-04-07T06:04:23.977Z,87.75
2019-04-07T06:07:31.934Z,87.10
2019-04-07T06:10:40.242Z,86.59
2019-04-07T06:13:47.509Z,85.61
2019-04-07T06:16:55.976Z,85.09
2019-04-07T06:20:03.620Z,85.06
2019-04-07T06:23:10.541Z,84.42
2019-04-07T06:26:17.580Z,84.98
2019-04-07T06:29:26.369Z,83.55
2019-04-07T06:32:36.110Z,82.15
2019-04-07T06:35:46.174Z,82.67
2019-04-07T06:38:53.711Z,82.53
2019-04-07T06:42:02.527Z,84.93
2019-04-07T06:45:13.000Z,83.36
2019-04-07T06:48:20.031Z,83.98
2019-04-07T06:51:44.620Z,83.29
2019-04-07T06:55:26.618Z,82.20
2019-04-07T06:58:42.924Z,80.44
2019-04-07T07:02:14.832Z,81.90
2019-04-07T07:05:34.966Z,82.13
2019-04-07T07:09:08.296Z,78.67
2019-04-07T07:12:31.349Z,77.19
2019-04-07T07:15:54.353Z,76.72
2019-04-07T07:19:11.984Z,72.25
2019-04-07T07:22:24.627Z,74.37
2019-04-07T07:25:33.062Z,73.64
2019-04-07T07:28:44.947Z,75.19
2019-04-07T07:31:55.387Z,72.20
2019-04-07T07:35:01.242Z,71.89
2019-04-07T07:38:08.163Z,70.75
2019-04-07T07:41:17.230Z,69.12
2019-04-07T07:44:25.337Z,69.55
2019-04-07T07:47:32.726Z,68.96
2019-04-07T07:50:42.422Z,69.70
2019-04-07T07:53:49.469Z,68.53
2019-04-07T07:56:57.048Z,69.10
2019-04-07T08:00:06.847Z,67.87
2019-04-07T08:03:12.812Z,68.87
2019-04-07T08:06:19.599Z,68.42
2019-04-07T08:09:27.168Z,66.09
2019-04-07T08:12:34.954Z,66.01
2019-04-07T08:15:42.675Z,64.55
2019-04-07T08:18:52.901Z,64.37
2019-04-07T08:22:00.705Z,60.75
2019-04-07T08:25:07.766Z,62.98
2019-04-07T08:28:14.745Z,62.46
2019-04-07T08:31:21.706Z,61.50
2019-04-07T08:34:30.538Z,60.75
2019-04-07T08:37:37.016Z,62.28
2019-04-07T08:40:44.555Z,60.49
2019-04-07T08:43:55.277Z,60.82
2019-04-07T08:47:01.381Z,61.57
2019-04-07T08:50:08.661Z,60.65
2019-04-07T08:53:16.265Z,59.54
2019-04-07T08:56:26.231Z,59.27
2019-04-07T08:59:32.497Z,60.19
2019-04-07T09:02:39.772Z,60.86
2019-04-07T09:05:46.780Z,59.51
2019-04-07T09:08:54.261Z,59.23
2019-04-07T09:12:02.725Z,60.63
2019-04-07T09:15:12.820Z,60.25
2019-04-07T09:18:26.559Z,59.12
2019-04-07T09:21:47.572Z,58.28
2019-04-07T09:25:08.148Z,58.97
2019-04-07T09:28:23.711Z,58.76
2019-04-07T09:31:56.557Z,57.93
2019-04-07T09:35:24.877Z,58.07
2019-04-07T09:38:57.100Z,58.50
2019-04-07T09:42:24.340Z,57.16
2019-04-07T09:45:57.265Z,55.94
2019-04-07T09:49:29.948Z,57.15
2019-04-07T09:53:09.994Z,57.80
2019-04-07T09:56:49.621Z,57.76
2019-04-07T10:00:22.988Z,56.11
2019-04-07T10:04:00.245Z,56.06
2019-04-07T10:07:19.288Z,57.82
2019-04-07T10:10:37.172Z,59.31
2019-04-07T10:13:53.083Z,58.18
2019-04-07T10:17:26.069Z,60.25
2019-04-07T10:20:45.015Z,56.91
2019-04-07T10:23:58.699Z,57.86
2019-04-07T10:27:23.327Z,58.14
2019-04-07T10:30:58.595Z,58.45
2019-04-07T10:34:24.896Z,57.67
2019-04-07T10:37:56.912Z,57.12
2019-04-07T10:41:26.244Z,59.15
2019-04-07T10:44:54.778Z,58.12
2019-04-07T10:48:16.706Z,58.68
2019-04-07T10:51:45.951Z,59.43
2019-04-07T10:55:09.793Z,59.16
2019-04-07T10:58:24.927Z,59.08
2019-04-07T11:01:38.813Z,58.77
2019-04-07T11:04:59.010Z,57.61
2019-04-07T11:08:37.586Z,57.67
2019-04-07T11:12:09.835Z,59.55
2019-04-07T11:15:39.355Z,57.43
2019-04-07T11:19:20.334Z,57.72
2019-04-07T11:22:44.692Z,56.40
2019-04-07T11:26:01.036Z,56.58
2019-04-07T11:29:15.447Z,57.10
2019-04-07T11:32:50.226Z,57.67
2019-04-07T11:36:18.605Z,57.89
2019-04-07T11:39:43.569Z,57.50
2019-04-07T11:43:08.779Z,57.04
2019-04-07T11:46:24.587Z,56.43
2019-04-07T11:49:49.598Z,56.06
2019-04-07T11:53:34.995Z,56.42
2019-04-07T11:57:13.646Z,57.45
2019-04-07T12:00:41.549Z,56.37
2019-04-07T12:04:19.716Z,55.84
2019-04-07T12:07:45.789Z,54.39
2019-04-07T12:11:13.166Z,55.22
2019-04-07T12:14:28.691Z,55.14
2019-04-07T12:18:04.357Z,54.80
2019-04-07T12:21:25.278Z,55.58
2019-04-07T12:24:59.273Z,55.95
2019-04-07T12:28:17.569Z,54.97
2019-04-07T12:31:35.921Z,55.18
2019-04-07T12:35:10.830Z,53.87
2019-04-07T12:38:43.214Z,54.31
2019-04-07T12:42:13.486Z,51.68
2019-04-07T12:45:46.636Z,52.56
2019-04-07T12:49:13.287Z,52.56
2019-04-07T12:52:36.659Z,49.73
2019-04-07T12:56:07.850Z,50.11
2019-04-07T12:59:33.636Z,49.30
2019-04-07T13:03:04.538Z,50.93
2019-04-07T13:06:22.287Z,51.22
2019-04-07T13:09:36.608Z,50.78
2019-04-07T13:13:12.334Z,51.70
2019-04-07T13:16:32.769Z,50.19
2019-04-07T13:19:50.296Z,50.35
2019-04-07T13:23:16.585Z,49.88
2019-04-07T13:26:32.612Z,48.90
2019-04-07T13:29:51.876Z,50.67
2019-04-07T13:33:20.568Z,49.60
2019-04-07T13:36:37.818Z,51.68
2019-04-07T13:40:04.013Z,51.52
2019-04-07T13:43:37.082Z,51.79
2019-04-07T13:47:06.236Z,51.38
2019-04-07T13:50:34.097Z,53.57
2019-04-07T13:53:48.363Z,51.47
2019-04-07T13:57:17.852Z,52.50
2019-04-07T14:00:50.573Z,52.28
2019-04-07T14:04:16.727Z,51.99
2019-04-07T14:07:41.488Z,53.19
2019-04-07T14:10:59.327Z,53.64
2019-04-07T14:14:34.175Z,52.67
2019-04-07T14:18:04.762Z,51.43
2019-04-07T14:21:29.526Z,51.89
2019-04-07T14:24:56.765Z,51.39
2019-04-07T14:28:15.473Z,52.00
2019-04-07T14:31:50.217Z,53.54
2019-04-07T14:35:17.218Z,53.20
2019-04-07T14:38:39.167Z,52.71
2019-04-07T14:42:02.574Z,50.79
2019-04-07T14:45:21.221Z,50.54
2019-04-07T14:49:09.429Z,51.55
2019-04-07T14:52:46.043Z,52.10
2019-04-07T14:56:12.180Z,51.08
2019-04-07T14:59:36.503Z,51.92
2019-04-07T15:02:44.428Z,51.39
2019-04-07T15:05:55.163Z,51.64
2019-04-07T15:09:17.626Z,52.43
2019-04-07T15:12:33.877Z,51.45
2019-04-07T15:15:41.703Z,50.74
2019-04-07T15:18:52.264Z,50.54
2019-04-07T15:22:01.950Z,49.57
2019-04-07T15:25:08.986Z,50.55
2019-04-07T15:28:17.497Z,48.96
2019-04-07T15:31:26.446Z,48.98
2019-04-07T15:34:35.400Z,47.87
2019-04-07T15:37:42.788Z,48.19
2019-04-07T15:40:50.562Z,48.55
2019-04-07T15:43:58.490Z,49.61
2019-04-07T15:47:06.115Z,48.89
2019-04-07T15:50:13.859Z,49.04
2019-04-07T15:53:20.939Z,49.64
2019-04-07T15:56:28.996Z,50.79
2019-04-07T15:59:37.323Z,51.73
2019-04-07T16:02:46.105Z,52.23
2019-04-07T16:05:53.460Z,48.51
2019-04-07T16:09:01.232Z,49.02
2019-04-07T16:12:10.032Z,49.34
2019-04-07T16:15:18.186Z,49.68
2019-04-07T16:18:26.277Z,50.84
2019-04-07T16:21:35.269Z,51.01
2019-04-07T16:24:41.936Z,53.59
2019-04-07T16:27:49.042Z,53.38
2019-04-07T16:30:56.258Z,54.61
2019-04-07T16:34:05.717Z,55.48
2019-04-07T16:37:11.762Z,55.95
2019-04-07T16:40:20.526Z,56.92
2019-04-07T16:43:30.621Z,56.50
2019-04-07T16:46:36.826Z,52.51
2019-04-07T16:49:46.698Z,53.45
2019-04-07T16:52:53.228Z,54.14
2019-04-07T16:56:00.939Z,54.78
2019-04-07T16:59:09.664Z,53.01
2019-04-07T17:02:17.919Z,53.84
2019-04-07T17:05:25.666Z,53.69
2019-04-07T17:08:35.339Z,54.07
2019-04-07T17:11:43.048Z,54.82
2019-04-07T17:14:51.129Z,55.17
2019-04-07T17:17:58.889Z,56.65
2019-04-07T17:21:12.756Z,58.41
2019-04-07T17:24:19.671Z,57.46
2019-04-07T17:27:29.141Z,57.76
2019-04-07T17:30:38.404Z,58.50
2019-04-07T17:33:45.701Z,58.00
2019-04-07T17:36:55.934Z,59.39
2019-04-07T17:40:14.732Z,58.69
2019-04-07T17:43:46.551Z,62.30
2019-04-07T17:47:02.135Z,62.62
2019-04-07T17:50:30.399Z,64.69
2019-04-07T17:53:53.991Z,64.47
2019-04-07T17:57:38.305Z,65.18
2019-04-07T18:01:07.024Z,68.08
2019-04-07T18:04:53.609Z,67.77
2019-04-07T18:08:25.176Z,67.13
2019-04-07T18:12:04.369Z,66.38
2019-04-07T18:15:23.155Z,67.28
2019-04-07T18:18:54.160Z,68.17
2019-04-07T18:22:25.907Z,68.66
2019-04-07T18:25:42.593Z,68.59
2019-04-07T18:29:04.175Z,68.85
2019-04-07T18:32:41.811Z,69.26
2019-04-07T18:36:05.039Z,69.74
2019-04-07T18:39:29.688Z,68.15
2019-04-07T18:42:55.660Z,69.28
2019-04-07T18:46:31.465Z,69.43
2019-04-07T18:49:56.059Z,69.57
2019-04-07T18:53:14.694Z,71.25
2019-04-07T18:56:44.091Z,71.25
2019-04-07T19:00:15.741Z,70.44
2019-04-07T19:03:51.147Z,69.99
2019-04-07T19:07:16.659Z,69.89
2019-04-07T19:10:29.089Z,70.06
2019-04-07T19:14:07.399Z,70.44
2019-04-07T19:17:11.481Z,71.05
2019-04-07T19:20:42.074Z,71.67
2019-04-07T19:24:09.069Z,71.28
2019-04-07T19:27:33.965Z,71.35
2019-04-07T19:31:08.732Z,71.97
2019-04-07T19:34:32.839Z,72.18
2019-04-07T19:38:02.751Z,74.06
2019-04-07T19:41:29.350Z,73.65
2019-04-07T19:45:00.025Z,77.63
2019-04-07T19:48:40.453Z,76.20
2019-04-07T19:51:54.826Z,73.59
2019-04-07T19:55:10.077Z,73.75
2019-04-07T19:58:26.513Z,77.77
2019-04-07T20:01:51.150Z,75.09
2019-04-07T20:05:05.855Z,76.02
2019-04-07T20:08:32.290Z,77.59
2019-04-07T20:12:01.488Z,75.97
2019-04-07T20:15:29.586Z,77.12
2019-04-07T20:19:13.019Z,77.46
2019-04-07T20:22:39.743Z,75.62
2019-04-07T20:25:54.138Z,75.64
2019-04-07T20:29:41.999Z,74.89
2019-04-07T20:32:59.622Z,75.55
2019-04-07T20:36:38.116Z,75.85
2019-04-07T20:40:10.221Z,75.97
2019-04-07T20:43:42.603Z,76.55
2019-04-07T20:47:20.842Z,75.99
2019-04-07T20:51:00.464Z,75.54
2019-04-07T20:54:31.521Z,75.75
2019-04-07T20:58:12.267Z,76.59
2019-04-07T21:01:28.681Z,76.63
2019-04-07T21:05:03.103Z,78.46
2019-04-07T21:08:20.377Z,79.88
2019-04-07T21:11:47.315Z,77.07
2019-04-07T21:15:25.674Z,77.49
2019-04-07T21:18:46.867Z,78.76
2019-04-07T21:22:12.459Z,78.73
2019-04-07T21:25:37.760Z,77.88
2019-04-07T21:28:56.738Z,77.82
2019-04-07T21:32:23.597Z,77.38
2019-04-07T21:35:43.483Z,77.73
2019-04-07T21:39:05.745Z,77.99
2019-04-07T21:42:31.883Z,76.48
2019-04-07T21:45:53.341Z,75.28
2019-04-07T21:49:13.912Z,75.93
2019-04-07T21:52:46.107Z,74.99
2019-04-07T21:56:27.130Z,76.37
2019-04-07T21:59:40.198Z,76.83
2019-04-07T22:03:16.818Z,78.29
2019-04-07T22:06:46.600Z,78.80
2019-04-07T22:09:57.014Z,77.32
2019-04-07T22:13:06.460Z,81.00
2019-04-07T22:16:12.386Z,79.37
2019-04-07T22:19:20.205Z,80.41
2019-04-07T22:22:27.711Z,79.34
2019-04-07T22:25:44.647Z,78.67
2019-04-07T22:28:51.452Z,81.60
2019-04-07T22:31:59.728Z,79.21
2019-04-07T22:35:08.411Z,82.66
2019-04-07T22:38:17.568Z,82.72
2019-04-07T22:41:25.046Z,81.23
2019-04-07T22:44:33.559Z,81.59
2019-04-07T22:47:40.550Z,80.89
2019-04-07T22:50:47.560Z,80.12
2019-04-07T22:53:57.673Z,79.66
2019-04-07T22:57:06.116Z,79.81
2019-04-07T23:00:21.331Z,80.44
2019-04-07T23:03:32.505Z,81.10
2019-04-07T23:06:42.615Z,82.37
2019-04-07T23:09:49.620Z,81.60
2019-04-07T23:12:57.316Z,80.96
2019-04-07T23:16:12.539Z,80.92
2019-04-07T23:19:12.608Z,80.16
2019-04-07T23:22:20.101Z,80.74
2019-04-07T23:25:30.263Z,80.61
2019-04-07T23:28:37.102Z,80.19
2019-04-07T23:31:44.094Z,81.30
2019-04-07T23:34:50.873Z,81.51
2019-04-07T23:42:52.975Z,83.59
2019-04-07T23:46:00.190Z,80.02
2019-04-07T23:49:07.013Z,82.34
2019-04-07T23:52:14.553Z,83.46
2019-04-07T23:55:22.542Z,81.86
2019-04-07T23:58:29.501Z,80.38
